Terminal Aerodrome Forecast
Issued by NWS Mt. Holly, NJ

Current Version | Previous Version | Text Only | Print | Product List | Glossary On
Versions: 1 2 3 4 5 6 7 8 9 10 11 12
785
FTUS41 KPHI 221137
TAFILG
TAF
KILG 221137Z 2212/2312 04006KT P6SM FEW080
     FM221700 22005KT P6SM SCT060 BKN100 PROB30 2222/2303 4SM +TSRA
      OVC040CB
     FM230300 26004KT P6SM OVC050 PROB30 2303/2309 4SM TSRA OVC015CB
     FM230900 VRB04KT P6SM OVC015=

USA.gov is the U.S. government's official web portal to all federal, state and local government web resources and services.